createdAt,value
2019-06-10T06:21:38.723Z,100500.70
2019-06-10T06:24:06.366Z,100504.44
2019-06-10T06:26:43.002Z,100504.91
2019-06-10T06:29:15.575Z,100500.63
2019-06-10T06:31:52.210Z,100500.20
2019-06-10T06:34:23.782Z,100494.41
2019-06-10T06:36:57.164Z,100487.05
2019-06-10T06:39:33.413Z,100489.48
2019-06-10T06:42:05.463Z,100486.69
2019-06-10T06:44:39.619Z,100491.77
2019-06-10T06:47:13.228Z,100496.02
2019-06-10T06:49:48.042Z,100491.89
2019-06-10T06:52:38.913Z,100488.77
2019-06-10T06:54:57.252Z,100479.12
2019-06-10T06:57:44.646Z,100480.09
2019-06-10T07:00:42.690Z,100488.55
2019-06-10T07:02:58.717Z,100482.45
2019-06-10T07:05:35.290Z,100475.95
2019-06-10T07:08:08.370Z,100476.94
2019-06-10T07:10:43.668Z,100476.52
2019-06-10T07:13:17.672Z,100475.86
2019-06-10T07:15:53.303Z,100478.80
2019-06-10T07:18:26.668Z,100478.38
2019-06-10T07:21:02.632Z,100484.06
2019-06-10T07:23:37.440Z,100483.08
2019-06-10T07:26:09.866Z,100482.09
2019-06-10T07:28:46.750Z,100487.60
2019-06-10T07:31:24.083Z,100480.35
2019-06-10T07:33:54.214Z,100476.25
2019-06-10T07:36:28.328Z,100471.19
2019-06-10T07:39:16.421Z,100466.12
2019-06-10T07:41:49.622Z,100461.57
2019-06-10T07:44:23.543Z,100457.67
2019-06-10T07:46:57.668Z,100450.81
2019-06-10T07:49:33.447Z,100439.41
2019-06-10T07:52:15.156Z,100441.36
2019-06-10T07:54:44.019Z,100436.42
2019-06-10T07:57:18.240Z,100431.84
2019-06-10T07:59:52.511Z,100413.08
2019-06-10T08:02:26.669Z,100413.18
2019-06-10T08:05:03.497Z,100417.20
2019-06-10T08:07:36.716Z,100409.01
2019-06-10T08:10:13.083Z,100409.05
2019-06-10T08:12:46.642Z,100404.64
2019-06-10T08:15:22.876Z,100404.02
2019-06-10T08:17:55.873Z,100404.41
2019-06-10T08:20:47.922Z,100409.27
2019-06-10T08:23:23.562Z,100404.02
2019-06-10T08:25:58.359Z,100400.31
2019-06-10T08:28:33.290Z,100398.56
2019-06-10T08:31:06.359Z,100398.56
2019-06-10T08:33:42.700Z,100397.05
2019-06-10T08:36:15.436Z,100387.38
2019-06-10T08:38:49.546Z,100389.37
2019-06-10T08:41:23.558Z,100372.63
2019-06-10T08:43:57.679Z,100366.66
2019-06-10T08:46:32.983Z,100362.30
2019-06-10T08:49:06.069Z,100360.10
2019-06-10T08:51:42.910Z,100357.21
2019-06-10T08:54:14.944Z,100359.95
2019-06-10T08:56:50.728Z,100357.02
2019-06-10T08:59:23.896Z,100354.59
2019-06-10T09:01:58.286Z,100360.75
2019-06-10T09:04:33.082Z,100365.92
2019-06-10T09:07:07.459Z,100362.38
2019-06-10T09:09:54.246Z,100359.10
2019-06-10T09:12:32.845Z,100360.61
2019-06-10T09:15:03.668Z,100357.65
2019-06-10T09:17:39.778Z,100346.24
2019-06-10T09:20:15.122Z,100349.06
2019-06-10T09:23:00.128Z,100335.27
2019-06-10T09:25:24.683Z,100333.38
2019-06-10T09:27:58.645Z,100333.72
2019-06-10T09:30:33.378Z,100339.56
2019-06-10T09:33:06.669Z,100341.80
2019-06-10T09:35:41.685Z,100344.44
2019-06-10T09:38:15.763Z,100343.08
2019-06-10T09:40:59.206Z,100327.58
2019-06-10T09:43:28.099Z,100325.83
2019-06-10T09:46:03.669Z,100316.13
2019-06-10T09:48:37.241Z,100305.82
2019-06-10T09:51:14.269Z,100309.05
2019-06-10T09:54:01.101Z,100307.60
2019-06-10T09:56:24.395Z,100310.41
2019-06-10T09:58:58.703Z,100302.59
2019-06-10T10:01:32.678Z,100299.62
2019-06-10T10:04:07.653Z,100283.48
2019-06-10T10:06:43.944Z,100284.44
2019-06-10T10:09:16.327Z,100272.45
2019-06-10T10:11:54.452Z,100266.11
2019-06-10T10:14:25.641Z,100258.48
2019-06-10T10:17:00.548Z,100269.94
2019-06-10T10:19:34.449Z,100265.84
2019-06-10T10:22:10.771Z,100267.52
2019-06-10T10:24:44.173Z,100273.41
2019-06-10T10:27:18.952Z,100270.22
2019-06-10T10:29:57.018Z,100268.92
2019-06-10T10:32:27.918Z,100258.40
2019-06-10T10:35:03.690Z,100263.16
2019-06-10T10:37:37.168Z,100250.69
2019-06-10T10:40:12.292Z,100245.23
2019-06-10T10:42:51.310Z,100253.03
2019-06-10T10:45:22.513Z,100239.72
2019-06-10T10:47:57.450Z,100241.89
2019-06-10T10:50:33.949Z,100224.84
2019-06-10T10:53:06.365Z,100223.70
2019-06-10T10:55:42.534Z,100224.55
2019-06-10T10:58:17.104Z,100212.64
2019-06-10T11:00:53.973Z,100220.56
2019-06-10T11:03:26.197Z,100212.73
2019-06-10T11:06:01.095Z,100208.02
2019-06-10T11:08:35.255Z,100200.91
2019-06-10T11:11:13.209Z,100203.45
2019-06-10T11:13:45.256Z,100203.13
2019-06-10T11:16:33.228Z,100186.44
2019-06-10T11:19:07.349Z,100177.62
2019-06-10T11:21:43.158Z,100166.88
2019-06-10T11:24:32.486Z,100169.17
2019-06-10T11:26:54.534Z,100170.52
2019-06-10T11:29:27.289Z,100169.81
2019-06-10T11:32:02.526Z,100177.37
2019-06-10T11:34:36.950Z,100168.97
2019-06-10T11:37:12.145Z,100156.91
2019-06-10T11:39:48.044Z,100137.95
2019-06-10T11:42:23.318Z,100162.36
2019-06-10T11:44:58.354Z,100146.41
2019-06-10T11:47:32.987Z,100134.07
2019-06-10T11:50:25.303Z,100127.67
2019-06-10T11:52:47.569Z,100117.98
2019-06-10T11:55:23.604Z,100118.00
2019-06-10T11:57:59.047Z,100126.91
2019-06-10T12:00:34.363Z,100117.74
2019-06-10T12:03:07.622Z,100117.45
2019-06-10T12:05:41.791Z,100111.97
2019-06-10T12:08:16.041Z,100102.22
2019-06-10T12:10:51.905Z,100103.21
2019-06-10T12:13:25.034Z,100098.41
2019-06-10T12:18:35.164Z,100092.34
2019-06-10T12:21:09.232Z,100095.45
2019-06-10T12:23:43.793Z,100085.55
2019-06-10T12:26:17.976Z,100084.61
2019-06-10T12:28:54.596Z,100093.86
2019-06-10T12:31:25.846Z,100091.42
2019-06-10T12:34:00.961Z,100093.61
2019-06-10T12:36:35.230Z,100090.38
2019-06-10T12:39:11.932Z,100087.66
2019-06-10T12:41:58.330Z,100078.52
2019-06-10T12:44:33.691Z,100065.48
2019-06-10T12:47:08.291Z,100077.73
2019-06-10T12:49:43.105Z,100074.72
2019-06-10T12:52:17.720Z,100061.55
2019-06-10T12:54:53.233Z,100057.53
2019-06-10T12:57:25.953Z,100067.79
2019-06-10T12:59:58.979Z,100061.56
2019-06-10T13:02:34.659Z,100057.84
2019-06-10T13:05:08.638Z,100054.28
2019-06-10T13:07:43.339Z,100051.66
2019-06-10T13:10:33.236Z,100038.52
2019-06-10T13:13:08.883Z,100040.56
2019-06-10T13:15:43.174Z,100036.68
2019-06-10T13:18:19.583Z,100026.27
2019-06-10T13:20:53.507Z,100025.52
2019-06-10T13:23:31.889Z,100025.20
2019-06-10T13:26:04.260Z,100014.81
2019-06-10T13:28:36.812Z,100016.19
2019-06-10T13:31:10.342Z,100013.37
2019-06-10T13:33:44.528Z,100015.09
2019-06-10T13:36:17.563Z,100016.78
2019-06-10T13:38:53.079Z,100000.96
2019-06-10T13:41:33.434Z,100028.70
2019-06-10T13:44:08.385Z,100000.81
2019-06-10T13:46:42.537Z,99995.11
2019-06-10T13:49:17.097Z,99985.80
2019-06-10T13:51:52.892Z,99979.44
2019-06-10T13:54:26.389Z,99984.09
2019-06-10T13:57:03.685Z,99983.95
2019-06-10T13:59:36.107Z,99986.58
2019-06-10T14:02:11.628Z,99979.45
2019-06-10T14:04:44.846Z,99982.05
2019-06-10T14:07:18.115Z,99981.87
2019-06-10T14:09:52.238Z,99979.56
2019-06-10T14:12:26.386Z,99976.28
2019-06-10T14:15:02.555Z,99964.69
2019-06-10T14:17:35.723Z,99966.52
2019-06-10T14:20:13.612Z,99969.14
2019-06-10T14:22:45.652Z,99962.62
2019-06-10T14:25:18.758Z,99967.10
2019-06-10T14:27:53.289Z,99966.95
2019-06-10T14:30:27.732Z,99963.56
2019-06-10T14:33:02.820Z,99967.91
2019-06-10T14:35:36.976Z,99971.80
2019-06-10T14:38:14.016Z,99972.12
2019-06-10T14:40:47.963Z,99970.70
2019-06-10T14:43:23.143Z,99967.45
2019-06-10T14:45:57.423Z,99966.81
2019-06-10T14:48:33.467Z,99970.53
2019-06-10T14:51:06.933Z,99962.45
2019-06-10T14:53:42.521Z,99955.33
2019-06-10T14:56:19.263Z,99954.67
2019-06-10T14:58:52.775Z,99943.98
2019-06-10T15:01:26.139Z,99945.36
2019-06-10T15:03:59.289Z,99941.03
2019-06-10T15:06:33.827Z,99939.34
2019-06-10T15:09:09.437Z,99936.72
2019-06-10T15:11:43.882Z,99935.66
2019-06-10T15:14:17.819Z,99925.78
2019-06-10T15:16:53.340Z,99916.03
2019-06-10T15:19:29.030Z,99916.20
2019-06-10T15:22:02.874Z,99901.52
2019-06-10T15:24:36.804Z,99894.98
2019-06-10T15:27:16.745Z,99893.28
2019-06-10T15:29:44.792Z,99896.22
2019-06-10T15:32:32.646Z,99893.15
2019-06-10T15:34:53.443Z,99897.78
2019-06-10T15:37:28.805Z,99897.47
2019-06-10T15:40:03.631Z,99891.74
2019-06-10T15:42:37.750Z,99881.98
2019-06-10T15:45:15.003Z,99879.50
2019-06-10T15:47:47.412Z,99862.93
2019-06-10T15:50:23.452Z,99867.12
2019-06-10T15:52:55.481Z,99861.41
2019-06-10T15:55:55.405Z,99863.29
2019-06-10T15:58:03.744Z,99849.95
2019-06-10T16:00:37.024Z,99855.52
2019-06-10T16:03:14.216Z,99854.43
2019-06-10T16:05:45.259Z,99840.48
2019-06-10T16:08:20.262Z,99831.20
2019-06-10T16:10:54.299Z,99841.58
2019-06-10T16:13:28.665Z,99843.72
2019-06-10T16:16:03.641Z,99837.38
2019-06-10T16:18:38.204Z,99825.92
2019-06-10T16:21:13.250Z,99818.20
2019-06-10T16:23:47.211Z,99811.37
2019-06-10T16:26:23.479Z,99811.54
2019-06-10T16:28:56.294Z,99815.41
2019-06-10T16:31:30.512Z,99811.98
2019-06-10T16:34:05.139Z,99801.42
2019-06-10T16:36:39.351Z,99800.64
2019-06-10T16:39:14.913Z,99808.36
2019-06-10T16:41:48.908Z,99808.96
2019-06-10T16:44:26.245Z,99814.17
2019-06-10T16:47:03.039Z,99817.45
2019-06-10T16:49:38.909Z,99815.05
2019-06-10T16:52:13.248Z,99814.66
2019-06-10T16:54:47.162Z,99812.44
2019-06-10T16:57:22.782Z,99822.20
2019-06-10T16:59:56.525Z,99820.70
2019-06-10T17:02:29.954Z,99828.81
2019-06-10T17:05:08.326Z,99824.44
2019-06-10T17:07:43.514Z,99824.64
2019-06-10T17:10:17.921Z,99811.28
2019-06-10T17:13:03.116Z,99807.80
2019-06-10T17:15:37.682Z,99794.29
2019-06-10T17:18:12.953Z,99790.16
2019-06-10T17:20:47.282Z,99791.12
2019-06-10T17:23:26.958Z,99785.00
2019-06-10T17:25:59.218Z,99791.06
2019-06-10T17:28:36.355Z,99788.77
2019-06-10T17:31:07.566Z,99787.87
2019-06-10T17:33:42.668Z,99791.61
2019-06-10T17:36:15.671Z,99780.67
2019-06-10T17:38:48.763Z,99778.97
2019-06-10T17:41:25.859Z,99772.70
2019-06-10T17:43:57.861Z,99779.27
2019-06-10T17:46:34.410Z,99773.98
2019-06-10T17:49:07.087Z,99766.75
2019-06-10T17:51:40.159Z,99773.37
2019-06-10T17:54:15.375Z,99775.56
2019-06-10T17:56:49.429Z,99773.59
2019-06-10T17:59:25.286Z,99767.48
2019-06-10T18:01:58.988Z,99777.00
2019-06-10T18:04:33.613Z,99785.67
2019-06-10T18:07:07.830Z,99785.92
2019-06-10T18:09:42.078Z,99782.83
2019-06-10T18:12:15.480Z,99771.95
2019-06-10T18:14:49.093Z,99772.04
2019-06-10T18:17:23.812Z,99789.66
2019-06-10T18:19:56.907Z,99788.17
2019-06-10T18:22:34.021Z,99781.68
2019-06-10T18:25:06.569Z,99768.89
2019-06-10T18:27:41.859Z,99774.20
2019-06-10T18:30:16.312Z,99787.23
2019-06-10T18:32:52.391Z,99790.45
2019-06-10T18:35:25.839Z,99790.55
2019-06-10T18:37:58.880Z,99774.65
2019-06-10T18:40:33.539Z,99784.91
2019-06-10T18:43:07.943Z,99791.45
2019-06-10T18:45:41.433Z,99791.34
2019-06-10T18:48:15.600Z,99807.23
2019-06-10T18:50:49.707Z,99819.53
2019-06-10T18:53:24.127Z,99831.23
2019-06-10T18:55:57.677Z,99829.33
2019-06-10T18:58:33.910Z,99815.41
2019-06-10T19:01:08.000Z,99807.05
2019-06-10T19:03:43.103Z,99810.30
2019-06-10T19:06:17.076Z,99810.43
2019-06-10T19:08:52.892Z,99807.03
2019-06-10T19:11:25.986Z,99801.63
2019-06-10T19:14:00.204Z,99801.35
2019-06-10T19:16:35.440Z,99806.79
2019-06-10T19:19:09.191Z,99811.58
2019-06-10T19:21:43.959Z,99803.98
2019-06-10T19:24:19.733Z,99790.84
2019-06-10T19:26:53.971Z,99777.55
2019-06-10T19:29:33.740Z,99737.41
2019-06-10T19:32:03.771Z,99745.84
2019-06-10T19:34:42.144Z,99743.77
2019-06-10T19:37:13.984Z,99748.67
2019-06-10T19:39:51.539Z,99751.68
2019-06-10T19:42:23.126Z,99744.23
2019-06-10T19:44:57.346Z,99731.39
2019-06-10T19:47:32.646Z,99723.94
2019-06-10T19:50:08.847Z,99724.81
2019-06-10T19:52:45.358Z,99717.55
2019-06-10T19:55:17.048Z,99726.19
2019-06-10T19:57:51.186Z,99758.14
2019-06-10T20:00:26.019Z,99823.03
2019-06-10T20:02:59.155Z,99843.73
2019-06-10T20:05:34.603Z,99831.42
2019-06-10T20:08:06.946Z,99964.30
2019-06-10T20:10:40.234Z,100008.98
2019-06-10T20:13:13.379Z,100063.46
2019-06-10T20:15:48.280Z,100100.62
2019-06-10T20:18:40.418Z,100127.39
2019-06-10T20:21:16.420Z,100075.98
2019-06-10T20:23:54.655Z,99991.67
2019-06-10T20:26:28.863Z,99915.06
2019-06-10T20:29:03.795Z,99904.38
2019-06-10T20:31:48.851Z,99899.73
2019-06-10T20:34:30.623Z,99927.19
2019-06-10T20:37:27.448Z,99939.95
2019-06-10T20:40:03.333Z,99941.52
2019-06-10T20:42:40.215Z,99937.44
2019-06-10T20:45:13.295Z,99957.80
2019-06-10T20:47:47.966Z,99967.40
2019-06-10T20:50:22.266Z,99951.73
2019-06-10T20:53:19.980Z,99953.70
2019-06-10T20:55:57.439Z,99953.51
2019-06-10T20:58:28.442Z,99938.23
2019-06-10T21:01:04.060Z,99930.78
2019-06-10T21:03:38.985Z,99905.70
2019-06-10T21:06:13.602Z,99915.72
2019-06-10T21:08:49.556Z,99900.42
2019-06-10T21:11:23.084Z,99898.09
2019-06-10T21:14:04.617Z,99901.40
2019-06-10T21:16:37.985Z,99901.04
2019-06-10T21:19:12.080Z,99900.64
2019-06-10T21:21:47.179Z,99902.61
2019-06-10T21:24:23.083Z,99900.64
2019-06-10T21:27:15.261Z,99970.75
2019-06-10T21:29:50.268Z,99994.46
2019-06-10T21:32:24.409Z,99924.53
2019-06-10T21:35:13.656Z,99848.91
2019-06-10T21:37:48.252Z,99852.64
2019-06-10T21:40:23.233Z,99854.78
2019-06-10T21:42:56.296Z,99845.18
2019-06-10T21:45:32.446Z,99872.60
2019-06-10T21:48:04.221Z,99865.75
2019-06-10T21:50:38.352Z,99863.00
2019-06-10T21:53:15.503Z,99924.14
2019-06-10T21:55:50.763Z,100008.75
2019-06-10T21:58:24.383Z,100022.08
2019-06-10T22:01:09.657Z,99978.80
2019-06-10T22:03:33.604Z,99932.00
2019-06-10T22:06:07.949Z,99920.09
2019-06-10T22:08:42.425Z,99934.22
2019-06-10T22:11:16.041Z,99916.81
2019-06-10T22:13:50.781Z,99880.20
2019-06-10T22:16:25.325Z,99843.63
2019-06-10T22:19:02.880Z,99840.89
2019-06-10T22:21:35.136Z,99857.28
2019-06-10T22:24:08.311Z,99878.83
2019-06-10T22:26:42.535Z,99888.77
2019-06-10T22:29:16.552Z,99869.62
2019-06-10T22:31:53.215Z,99886.42
2019-06-10T22:34:25.654Z,99881.94
2019-06-10T22:37:00.078Z,99876.84
2019-06-10T22:39:34.232Z,99883.49
2019-06-10T22:42:08.644Z,99880.38
2019-06-10T22:44:42.451Z,99874.90
2019-06-10T22:47:16.839Z,99868.63
2019-06-10T22:49:54.479Z,99867.48
2019-06-10T22:52:24.926Z,99885.67
2019-06-10T22:54:58.679Z,99874.94
2019-06-10T22:57:32.994Z,99871.20
2019-06-10T23:00:12.965Z,99876.09
2019-06-10T23:02:45.839Z,99875.91
2019-06-10T23:05:19.838Z,99880.20
2019-06-10T23:07:54.481Z,99885.67
2019-06-10T23:10:29.081Z,99874.94
2019-06-10T23:13:03.299Z,99873.75
2019-06-10T23:33:26.991Z,99843.80
2019-06-10T23:36:00.736Z,99841.84
2019-06-10T23:38:35.812Z,99854.95
2019-06-10T23:41:07.830Z,99854.16
2019-06-10T23:43:42.174Z,99868.03
2019-06-10T23:46:13.811Z,99863.53
2019-06-10T23:48:45.843Z,99870.18
2019-06-10T23:51:18.290Z,99875.27
2019-06-10T23:53:53.821Z,99878.41
